Time;durP1;ratioP1;P1;durP2;ratioP2;P2;SDS_P1;SDS_P2;PMS_P1;PMS_P2;Temp;Humidity;BMP_temperature;BMP_pressure;BME280_temperature;BME280_humidity;BME280_pressure;Samples;Min_cycle;Max_cycle;Signal;HPM_P1;HPM_P2
2023/01/22 00:00:34;;;;;;;13.95;3.50;;;;;;;;;;4994781;28;20053;-67
2023/01/22 00:03:01;;;;;;;14.15;3.17;;;;;;;;;;5015688;28;20091;-67
2023/01/22 00:05:27;;;;;;;15.50;3.88;;;;;;;;;;5000489;28;20033;-67
2023/01/22 00:07:54;;;;;;;20.33;3.85;;;;;;;;;;4999951;28;20061;-67
2023/01/22 00:10:21;;;;;;;11.32;2.90;;;;;;;;;;5000298;28;20060;-67
2023/01/22 00:12:47;;;;;;;10.10;2.80;;;;;;;;;;5001846;28;20048;-67
2023/01/22 00:15:14;;;;;;;15.40;3.30;;;;;;;;;;5002184;28;20034;-67
2023/01/22 00:17:40;;;;;;;15.88;2.90;;;;;;;;;;5001483;28;20120;-68
2023/01/22 00:20:07;;;;;;;16.90;3.42;;;;;;;;;;5001871;28;20034;-66
2023/01/22 00:22:34;;;;;;;13.43;3.70;;;;;;;;;;5000603;28;20059;-66
2023/01/22 00:25:01;;;;;;;13.25;3.65;;;;;;;;;;4997827;28;20450;-67
2023/01/22 00:27:27;;;;;;;13.95;3.20;;;;;;;;;;5000333;28;20041;-66
2023/01/22 00:29:54;;;;;;;16.92;3.47;;;;;;;;;;5001069;28;20409;-67
2023/01/22 00:32:20;;;;;;;12.38;3.42;;;;;;;;;;4999307;28;20049;-67
2023/01/22 00:34:51;;;;;;;18.85;3.80;;;;;;;;;;5001434;28;20045;-67
2023/01/22 00:37:19;;;;;;;15.77;3.92;;;;;;;;;;5016270;28;20068;-67
2023/01/22 00:39:46;;;;;;;14.20;3.95;;;;;;;;;;5000498;28;20050;-66
2023/01/22 00:42:12;;;;;;;17.10;5.47;;;;;;;;;;5001943;28;20042;-67
2023/01/22 00:44:39;;;;;;;12.13;4.13;;;;;;;;;;5002030;28;20052;-68
2023/01/22 00:47:05;;;;;;;16.88;6.90;;;;;;;;;;5001911;28;20050;-67
2023/01/22 00:49:32;;;;;;;12.52;6.38;;;;;;;;;;5001059;28;20045;-67
2023/01/22 00:51:59;;;;;;;19.27;7.03;;;;;;;;;;5000384;28;20049;-67
2023/01/22 00:54:25;;;;;;;15.05;6.43;;;;;;;;;;4998715;28;20038;-66
2023/01/22 00:56:52;;;;;;;13.63;5.85;;;;;;;;;;5001081;28;20042;-67
2023/01/22 00:59:19;;;;;;;21.17;7.00;;;;;;;;;;4995609;28;20042;-69
2023/01/22 01:01:45;;;;;;;23.45;6.80;;;;;;;;;;5001311;28;20046;-67
2023/01/22 01:04:13;;;;;;;18.02;7.57;;;;;;;;;;4998828;28;20908;-68
2023/01/22 01:06:40;;;;;;;25.75;7.78;;;;;;;;;;4998392;28;20050;-68
2023/01/22 01:09:06;;;;;;;19.05;8.30;;;;;;;;;;4997597;28;20115;-67
2023/01/22 01:11:33;;;;;;;19.65;10.35;;;;;;;;;;4997259;28;20050;-67
2023/01/22 01:14:01;;;;;;;14.80;4.35;;;;;;;;;;5001440;28;20038;-68
2023/01/22 01:16:29;;;;;;;10.75;3.90;;;;;;;;;;5013153;28;20041;-68
2023/01/22 01:18:59;;;;;;;14.35;5.18;;;;;;;;;;4997803;28;20050;-68
2023/01/22 01:21:26;;;;;;;14.43;5.22;;;;;;;;;;5001815;28;20042;-68
2023/01/22 01:23:54;;;;;;;22.17;9.82;;;;;;;;;;5013887;28;20048;-68
2023/01/22 01:26:21;;;;;;;26.15;10.68;;;;;;;;;;4996888;28;20124;-68
2023/01/22 01:28:51;;;;;;;25.05;9.07;;;;;;;;;;4997312;28;20620;-66
2023/01/22 01:31:18;;;;;;;16.08;8.60;;;;;;;;;;4997270;28;20046;-68
2023/01/22 01:33:45;;;;;;;13.23;4.75;;;;;;;;;;4976996;28;20046;-68
2023/01/22 01:36:16;;;;;;;18.38;5.68;;;;;;;;;;4980132;28;20582;-67
2023/01/22 01:38:43;;;;;;;12.60;4.32;;;;;;;;;;4977934;28;20099;-69
2023/01/22 01:41:11;;;;;;;12.52;3.70;;;;;;;;;;4978319;28;20042;-68
2023/01/22 01:43:38;;;;;;;15.10;5.40;;;;;;;;;;4976390;28;20133;-66
2023/01/22 01:46:11;;;;;;;10.25;4.55;;;;;;;;;;4979071;28;20129;-68
2023/01/22 01:48:38;;;;;;;7.13;3.20;;;;;;;;;;4992097;28;20096;-68
2023/01/22 01:51:11;;;;;;;8.50;4.55;;;;;;;;;;4979127;28;20047;-69
2023/01/22 01:53:39;;;;;;;10.52;4.18;;;;;;;;;;4973622;28;20038;-67
2023/01/22 01:56:08;;;;;;;18.23;6.95;;;;;;;;;;4977865;28;20054;-68
2023/01/22 01:58:36;;;;;;;14.02;5.35;;;;;;;;;;4976249;28;20057;-67
2023/01/22 02:01:11;;;;;;;12.00;3.97;;;;;;;;;;4977769;28;20153;-68
2023/01/22 02:03:38;;;;;;;8.30;2.90;;;;;;;;;;4981608;28;20066;-68
2023/01/22 02:06:05;;;;;;;9.00;3.45;;;;;;;;;;4979329;28;20335;-68
2023/01/22 02:08:32;;;;;;;9.70;3.60;;;;;;;;;;4984389;28;20046;-68
2023/01/22 02:10:58;;;;;;;11.10;2.53;;;;;;;;;;4979083;28;20051;-67
2023/01/22 02:13:27;;;;;;;8.48;3.10;;;;;;;;;;4976588;28;20102;-66
2023/01/22 02:15:54;;;;;;;7.38;1.95;;;;;;;;;;4976749;28;20066;-66
2023/01/22 02:18:20;;;;;;;5.20;1.40;;;;;;;;;;4976419;28;20038;-68
2023/01/22 02:20:53;;;;;;;4.72;1.20;;;;;;;;;;4992883;28;20160;-67
2023/01/22 02:23:20;;;;;;;4.15;1.10;;;;;;;;;;4975634;28;20042;-68
2023/01/22 02:25:47;;;;;;;2.22;0.80;;;;;;;;;;4977226;28;20459;-67
2023/01/22 02:28:13;;;;;;;3.95;0.70;;;;;;;;;;4977646;28;20049;-68
2023/01/22 02:30:40;;;;;;;3.80;0.80;;;;;;;;;;4990345;28;20050;-67
2023/01/22 02:33:07;;;;;;;4.90;0.93;;;;;;;;;;4976462;28;20129;-66
2023/01/22 02:35:33;;;;;;;2.50;0.80;;;;;;;;;;4981437;28;20034;-67
2023/01/22 02:38:00;;;;;;;3.10;0.88;;;;;;;;;;4977126;28;20036;-66
2023/01/22 02:40:28;;;;;;;3.00;0.90;;;;;;;;;;4975818;28;20073;-67
2023/01/22 02:42:56;;;;;;;3.25;0.70;;;;;;;;;;4977038;28;20443;-67
2023/01/22 02:45:23;;;;;;;4.65;0.88;;;;;;;;;;4975767;28;20507;-67
2023/01/22 02:47:50;;;;;;;2.75;0.88;;;;;;;;;;4972657;28;20084;-67
2023/01/22 02:50:36;;;;;;;2.22;0.68;;;;;;;;;;4988768;28;20058;-68
2023/01/22 02:53:03;;;;;;;2.42;0.70;;;;;;;;;;4991405;28;20162;-67
2023/01/22 02:55:29;;;;;;;2.80;0.73;;;;;;;;;;4970693;28;20057;-67
2023/01/22 02:57:56;;;;;;;2.10;0.60;;;;;;;;;;4990769;28;20029;-67
2023/01/22 03:00:23;;;;;;;2.60;0.80;;;;;;;;;;4989425;28;20148;-67
2023/01/22 03:02:49;;;;;;;2.92;0.93;;;;;;;;;;4975892;28;20684;-67
2023/01/22 03:05:16;;;;;;;2.72;0.77;;;;;;;;;;4990658;28;20035;-67
2023/01/22 03:07:43;;;;;;;1.92;0.68;;;;;;;;;;4989694;28;20045;-66
2023/01/22 03:10:17;;;;;;;2.35;0.63;;;;;;;;;;4990094;28;20116;-67
2023/01/22 03:21:14;;;;;;;6.38;0.80;;;;;;;;;;4989695;28;20161;-67
2023/01/22 03:23:41;;;;;;;2.33;0.63;;;;;;;;;;4990336;28;20041;-67
2023/01/22 03:26:08;;;;;;;2.60;0.70;;;;;;;;;;4985363;28;20254;-67
2023/01/22 03:28:35;;;;;;;2.97;0.68;;;;;;;;;;4991730;28;20459;-67
2023/01/22 03:31:02;;;;;;;2.70;0.80;;;;;;;;;;4996174;28;20145;-68
2023/01/22 03:33:29;;;;;;;3.65;0.70;;;;;;;;;;4986368;28;20053;-68
2023/01/22 03:36:00;;;;;;;2.97;0.80;;;;;;;;;;4996410;28;20041;-67
2023/01/22 03:38:26;;;;;;;2.55;0.65;;;;;;;;;;4994356;28;20042;-68
2023/01/22 03:40:53;;;;;;;2.53;0.75;;;;;;;;;;4996375;28;20045;-67
2023/01/22 03:43:20;;;;;;;4.10;0.60;;;;;;;;;;4996056;28;20053;-67
2023/01/22 03:45:47;;;;;;;1.48;0.50;;;;;;;;;;4995736;28;20256;-67
2023/01/22 03:48:14;;;;;;;1.92;0.57;;;;;;;;;;4995606;28;20033;-67
2023/01/22 03:50:40;;;;;;;2.95;0.77;;;;;;;;;;4995300;28;20046;-68
2023/01/22 03:53:07;;;;;;;2.05;0.60;;;;;;;;;;4996291;28;20168;-67
2023/01/22 03:55:34;;;;;;;5.55;0.70;;;;;;;;;;5008857;28;20045;-66
2023/01/22 03:58:00;;;;;;;1.92;0.60;;;;;;;;;;4996041;28;20073;-67
2023/01/22 04:00:28;;;;;;;2.97;0.60;;;;;;;;;;4994324;28;20038;-67
2023/01/22 04:02:54;;;;;;;3.47;0.70;;;;;;;;;;4995417;28;20126;-66
2023/01/22 04:05:21;;;;;;;2.50;0.70;;;;;;;;;;4995139;28;20049;-67
2023/01/22 04:07:49;;;;;;;2.88;0.70;;;;;;;;;;4992000;28;20491;-67
2023/01/22 04:10:17;;;;;;;2.13;0.60;;;;;;;;;;4994328;28;20173;-67
2023/01/22 04:12:43;;;;;;;3.47;0.50;;;;;;;;;;4992729;28;20134;-68
2023/01/22 04:15:10;;;;;;;5.38;0.90;;;;;;;;;;4994640;28;20066;-67
2023/01/22 04:17:37;;;;;;;1.38;0.50;;;;;;;;;;5011747;28;20434;-67
2023/01/22 04:20:04;;;;;;;3.85;0.60;;;;;;;;;;4997474;28;20050;-67
2023/01/22 04:22:30;;;;;;;1.80;0.60;;;;;;;;;;5015282;28;20038;-66
2023/01/22 04:24:57;;;;;;;4.10;0.50;;;;;;;;;;5013835;28;20041;-65
2023/01/22 04:27:24;;;;;;;1.60;0.50;;;;;;;;;;4999111;28;20380;-65
2023/01/22 04:29:50;;;;;;;1.88;0.50;;;;;;;;;;4997837;28;20673;-65
2023/01/22 04:32:18;;;;;;;1.08;0.40;;;;;;;;;;4993592;28;20054;-66
2023/01/22 04:34:46;;;;;;;1.55;0.50;;;;;;;;;;4995384;28;20042;-65
2023/01/22 04:37:13;;;;;;;2.88;0.60;;;;;;;;;;4995199;28;20079;-66
2023/01/22 04:39:39;;;;;;;1.63;0.50;;;;;;;;;;4996156;28;20046;-65
2023/01/22 04:42:07;;;;;;;0.90;0.40;;;;;;;;;;4999416;28;20664;-66
2023/01/22 04:44:34;;;;;;;2.22;0.60;;;;;;;;;;4997750;28;20168;-66
2023/01/22 04:47:01;;;;;;;1.80;0.50;;;;;;;;;;5011190;28;20500;-66
2023/01/22 04:49:27;;;;;;;1.88;0.50;;;;;;;;;;4996180;28;20055;-66
2023/01/22 04:51:55;;;;;;;2.08;0.47;;;;;;;;;;5004968;28;20046;-66
2023/01/22 04:54:21;;;;;;;3.85;0.55;;;;;;;;;;4998018;28;20100;-67
2023/01/22 04:56:48;;;;;;;1.88;0.50;;;;;;;;;;4996843;28;20042;-65
2023/01/22 04:59:15;;;;;;;2.65;0.70;;;;;;;;;;4998324;28;22286;-66
2023/01/22 05:01:43;;;;;;;2.70;0.60;;;;;;;;;;4998035;28;20038;-67
2023/01/22 05:04:10;;;;;;;1.70;0.50;;;;;;;;;;4998479;28;20491;-68
2023/01/22 05:06:39;;;;;;;3.90;0.60;;;;;;;;;;4997112;28;20049;-67
2023/01/22 05:09:05;;;;;;;1.20;0.50;;;;;;;;;;4997843;28;20115;-70
2023/01/22 05:11:32;;;;;;;1.25;0.40;;;;;;;;;;4997583;28;20161;-66
2023/01/22 05:13:59;;;;;;;5.40;0.70;;;;;;;;;;4998378;28;20038;-65
2023/01/22 05:16:28;;;;;;;1.15;0.40;;;;;;;;;;4996586;28;20095;-67
2023/01/22 05:18:54;;;;;;;1.95;0.50;;;;;;;;;;5012658;28;20164;-67
2023/01/22 05:21:21;;;;;;;2.20;0.50;;;;;;;;;;4997749;28;20502;-66
2023/01/22 05:23:48;;;;;;;2.45;0.60;;;;;;;;;;4997540;28;20095;-66
2023/01/22 05:26:14;;;;;;;4.25;0.60;;;;;;;;;;4996964;28;20038;-67
2023/01/22 05:28:41;;;;;;;3.47;0.60;;;;;;;;;;4995776;28;20053;-68
2023/01/22 05:31:09;;;;;;;1.95;0.60;;;;;;;;;;5012964;28;20042;-67
2023/01/22 05:33:38;;;;;;;5.15;0.50;;;;;;;;;;5011747;28;20185;-68
2023/01/22 05:36:06;;;;;;;1.98;0.55;;;;;;;;;;5012489;28;20042;-67
2023/01/22 05:38:32;;;;;;;2.17;0.40;;;;;;;;;;5010984;28;20521;-66
2023/01/22 05:40:59;;;;;;;0.90;0.40;;;;;;;;;;4997173;28;20084;-66
2023/01/22 05:43:26;;;;;;;0.68;0.35;;;;;;;;;;4996806;28;20045;-67
2023/01/22 05:45:52;;;;;;;2.88;0.50;;;;;;;;;;4997127;28;20049;-66
2023/01/22 05:48:19;;;;;;;2.25;0.57;;;;;;;;;;4995644;28;20046;-67
2023/01/22 05:50:45;;;;;;;1.65;0.50;;;;;;;;;;5010231;28;20045;-67
2023/01/22 05:53:12;;;;;;;1.85;0.50;;;;;;;;;;4997398;28;20045;-68
2023/01/22 05:55:39;;;;;;;1.38;0.40;;;;;;;;;;4996720;28;20139;-66
2023/01/22 05:58:05;;;;;;;3.67;0.65;;;;;;;;;;4997262;28;20038;-66
2023/01/22 06:00:32;;;;;;;1.48;0.40;;;;;;;;;;4997033;28;20550;-67
2023/01/22 06:02:59;;;;;;;1.25;0.40;;;;;;;;;;5012293;28;20037;-66
2023/01/22 06:05:27;;;;;;;1.10;0.40;;;;;;;;;;4996299;28;20065;-67
2023/01/22 06:07:53;;;;;;;2.80;0.60;;;;;;;;;;4998234;28;20045;-66
2023/01/22 06:10:20;;;;;;;3.72;0.52;;;;;;;;;;4996863;28;20080;-67
2023/01/22 06:12:46;;;;;;;1.77;0.50;;;;;;;;;;4995417;28;20048;-66
2023/01/22 06:15:13;;;;;;;2.70;0.60;;;;;;;;;;4999991;28;20038;-65
2023/01/22 06:17:40;;;;;;;3.15;0.47;;;;;;;;;;4990893;28;20103;-66
2023/01/22 06:20:07;;;;;;;1.23;0.50;;;;;;;;;;4996936;28;20050;-66
2023/01/22 06:22:33;;;;;;;3.33;0.50;;;;;;;;;;5011027;28;20397;-66
2023/01/22 06:25:00;;;;;;;1.52;0.50;;;;;;;;;;4997242;28;20026;-67
2023/01/22 06:27:27;;;;;;;1.77;0.50;;;;;;;;;;5000472;28;20530;-66
2023/01/22 06:29:53;;;;;;;2.63;0.50;;;;;;;;;;4997994;28;20030;-66
2023/01/22 06:32:20;;;;;;;2.13;0.50;;;;;;;;;;5008239;28;20046;-66
2023/01/22 06:34:47;;;;;;;1.00;0.40;;;;;;;;;;5011730;28;20050;-66
2023/01/22 06:37:13;;;;;;;0.98;0.30;;;;;;;;;;5011460;28;20053;-66
2023/01/22 06:39:40;;;;;;;1.67;0.50;;;;;;;;;;5011050;28;20124;-67
2023/01/22 06:42:07;;;;;;;1.30;0.45;;;;;;;;;;4996590;28;20091;-66
2023/01/22 06:44:33;;;;;;;0.70;0.40;;;;;;;;;;5011272;28;20033;-67
2023/01/22 06:47:00;;;;;;;1.45;0.40;;;;;;;;;;4995943;28;20044;-66
2023/01/22 06:49:27;;;;;;;0.80;0.30;;;;;;;;;;4994512;28;20046;-66
2023/01/22 06:51:53;;;;;;;1.35;0.40;;;;;;;;;;4995989;28;20179;-65
2023/01/22 06:54:20;;;;;;;1.08;0.40;;;;;;;;;;4995711;28;20048;-66
2023/01/22 06:56:46;;;;;;;1.48;0.50;;;;;;;;;;4995918;28;20038;-66
2023/01/22 06:59:13;;;;;;;2.65;0.50;;;;;;;;;;4996179;28;20724;-66
2023/01/22 07:01:40;;;;;;;1.65;0.50;;;;;;;;;;4995347;28;20037;-67
2023/01/22 07:04:07;;;;;;;1.02;0.40;;;;;;;;;;4996940;28;20073;-67
2023/01/22 07:06:34;;;;;;;4.32;0.50;;;;;;;;;;4995472;28;20236;-66
2023/01/22 07:09:00;;;;;;;1.48;0.50;;;;;;;;;;4995773;28;20048;-68
2023/01/22 07:11:27;;;;;;;1.27;0.40;;;;;;;;;;4994422;28;20819;-69
2023/01/22 07:13:54;;;;;;;1.60;0.55;;;;;;;;;;5011449;28;20034;-67
2023/01/22 07:16:20;;;;;;;1.38;0.47;;;;;;;;;;5008836;28;20046;-66
2023/01/22 07:18:47;;;;;;;1.10;0.40;;;;;;;;;;4995717;28;20065;-66
2023/01/22 07:21:13;;;;;;;1.95;0.55;;;;;;;;;;4995985;28;20124;-68
2023/01/22 07:23:41;;;;;;;1.05;0.40;;;;;;;;;;4995653;28;20775;-67
2023/01/22 07:26:07;;;;;;;1.38;0.43;;;;;;;;;;5010955;28;20045;-66
2023/01/22 07:28:34;;;;;;;0.70;0.40;;;;;;;;;;4995165;28;20785;-66
2023/01/22 07:31:02;;;;;;;4.38;0.50;;;;;;;;;;4996606;28;20042;-66
2023/01/22 07:33:30;;;;;;;1.25;0.50;;;;;;;;;;4996498;28;20176;-67
2023/01/22 07:35:57;;;;;;;0.52;0.30;;;;;;;;;;5010564;28;20064;-65
2023/01/22 07:38:26;;;;;;;2.53;0.50;;;;;;;;;;5006258;28;20080;-65
2023/01/22 07:40:53;;;;;;;1.15;0.40;;;;;;;;;;4995007;28;20042;-65
2023/01/22 07:43:19;;;;;;;1.35;0.63;;;;;;;;;;4994657;28;20461;-66
2023/01/22 07:45:46;;;;;;;1.42;0.50;;;;;;;;;;4995015;28;20049;-66
2023/01/22 07:48:12;;;;;;;1.17;0.50;;;;;;;;;;4995191;28;20085;-65
2023/01/22 07:50:39;;;;;;;1.92;0.60;;;;;;;;;;4976006;28;20054;-66
2023/01/22 07:53:06;;;;;;;1.73;0.60;;;;;;;;;;4974930;28;20121;-67
2023/01/22 07:55:33;;;;;;;1.02;0.40;;;;;;;;;;4973639;28;20049;-66
2023/01/22 07:58:04;;;;;;;1.70;0.40;;;;;;;;;;4974730;28;20039;-66
2023/01/22 08:00:33;;;;;;;1.65;0.47;;;;;;;;;;4981336;28;20531;-66
2023/01/22 08:03:00;;;;;;;1.38;0.43;;;;;;;;;;4990413;28;22266;-66
2023/01/22 08:05:26;;;;;;;1.85;0.43;;;;;;;;;;4989793;28;20049;-66
2023/01/22 08:07:53;;;;;;;1.45;0.50;;;;;;;;;;4974790;28;20100;-66
2023/01/22 08:10:20;;;;;;;1.30;0.50;;;;;;;;;;4975783;28;20079;-67
2023/01/22 08:12:46;;;;;;;2.00;0.50;;;;;;;;;;4976526;28;20047;-66
2023/01/22 08:15:13;;;;;;;0.77;0.40;;;;;;;;;;4979597;28;20038;-66
2023/01/22 08:17:40;;;;;;;1.60;0.50;;;;;;;;;;4978994;28;20983;-66
2023/01/22 08:20:07;;;;;;;1.17;0.40;;;;;;;;;;4979145;28;21875;-66
2023/01/22 08:22:34;;;;;;;1.15;0.40;;;;;;;;;;4978562;28;20136;-67
2023/01/22 08:25:01;;;;;;;1.63;0.40;;;;;;;;;;4978524;28;20244;-68
2023/01/22 08:27:27;;;;;;;1.60;0.50;;;;;;;;;;4978370;28;20042;-66
2023/01/22 08:29:54;;;;;;;1.50;0.50;;;;;;;;;;4978580;28;20068;-66
2023/01/22 08:32:21;;;;;;;1.60;0.50;;;;;;;;;;4978857;28;20578;-66
2023/01/22 08:34:47;;;;;;;1.05;0.40;;;;;;;;;;4978731;28;20050;-65
2023/01/22 08:37:14;;;;;;;1.40;0.50;;;;;;;;;;4978977;28;20800;-66
2023/01/22 08:39:41;;;;;;;0.98;0.45;;;;;;;;;;4978075;28;20074;-67
2023/01/22 08:42:07;;;;;;;0.98;0.40;;;;;;;;;;4978581;28;20121;-66
2023/01/22 08:44:34;;;;;;;1.27;0.40;;;;;;;;;;4979418;28;20618;-66
2023/01/22 08:47:00;;;;;;;1.17;0.40;;;;;;;;;;4978591;28;20541;-66
2023/01/22 08:49:29;;;;;;;1.63;0.50;;;;;;;;;;4977438;28;20039;-67
2023/01/22 08:51:56;;;;;;;1.33;0.40;;;;;;;;;;4979457;28;20121;-66
2023/01/22 08:54:23;;;;;;;1.23;0.43;;;;;;;;;;4977999;28;20039;-66
2023/01/22 08:56:49;;;;;;;1.50;0.50;;;;;;;;;;4978632;28;20050;-67
2023/01/22 08:59:16;;;;;;;1.95;0.50;;;;;;;;;;4978872;28;20121;-66
2023/01/22 09:01:43;;;;;;;1.35;0.40;;;;;;;;;;4977937;28;20046;-66
2023/01/22 09:04:10;;;;;;;2.00;0.60;;;;;;;;;;4977975;28;20089;-66
2023/01/22 09:06:37;;;;;;;1.80;0.60;;;;;;;;;;4978426;28;20156;-66
2023/01/22 09:09:05;;;;;;;1.17;0.40;;;;;;;;;;4977005;28;20062;-66
2023/01/22 09:11:31;;;;;;;1.80;0.50;;;;;;;;;;4977958;28;20043;-66
2023/01/22 09:13:59;;;;;;;1.50;0.40;;;;;;;;;;4978472;28;20046;-67
2023/01/22 09:16:26;;;;;;;1.55;0.50;;;;;;;;;;4977030;28;20032;-67
2023/01/22 09:18:53;;;;;;;3.22;0.50;;;;;;;;;;4991630;28;20066;-66
2023/01/22 09:21:20;;;;;;;1.77;0.50;;;;;;;;;;4976308;28;20033;-66
2023/01/22 09:23:47;;;;;;;2.25;0.50;;;;;;;;;;4985849;28;20049;-67
2023/01/22 09:26:14;;;;;;;1.33;0.43;;;;;;;;;;4977629;28;20049;-67
2023/01/22 09:28:40;;;;;;;1.17;0.40;;;;;;;;;;4991465;28;20043;-66
2023/01/22 09:31:07;;;;;;;2.05;0.40;;;;;;;;;;4978198;28;20038;-67
2023/01/22 09:33:33;;;;;;;1.55;0.50;;;;;;;;;;4976678;28;20038;-68
2023/01/22 09:36:10;;;;;;;3.17;0.50;;;;;;;;;;4978203;28;20030;-67
2023/01/22 09:38:37;;;;;;;1.17;0.45;;;;;;;;;;4977280;28;20046;-67
2023/01/22 09:41:06;;;;;;;3.95;0.77;;;;;;;;;;4983352;28;20038;-66
2023/01/22 09:43:40;;;;;;;1.40;0.47;;;;;;;;;;4991865;28;20538;-66
2023/01/22 09:46:13;;;;;;;1.23;0.50;;;;;;;;;;4978130;28;20050;-67
2023/01/22 09:48:42;;;;;;;1.35;0.40;;;;;;;;;;4976558;28;20066;-66
2023/01/22 09:51:16;;;;;;;1.77;0.50;;;;;;;;;;4977151;28;20109;-66
2023/01/22 09:53:43;;;;;;;1.25;0.50;;;;;;;;;;4978936;28;20546;-67
2023/01/22 09:56:33;;;;;;;1.75;0.50;;;;;;;;;;4986082;28;20452;-67
2023/01/22 09:59:00;;;;;;;1.20;0.40;;;;;;;;;;4984945;28;20068;-66
2023/01/22 10:01:28;;;;;;;1.58;0.45;;;;;;;;;;5012329;28;20045;-66
2023/01/22 10:03:58;;;;;;;1.40;0.50;;;;;;;;;;5011954;28;20605;-67
2023/01/22 10:06:24;;;;;;;1.65;0.43;;;;;;;;;;4997824;28;20136;-67
2023/01/22 10:08:59;;;;;;;2.08;0.60;;;;;;;;;;4996877;28;20042;-66
2023/01/22 10:11:26;;;;;;;1.77;0.50;;;;;;;;;;4996365;28;20136;-66
2023/01/22 10:13:55;;;;;;;3.42;0.57;;;;;;;;;;4998111;28;20026;-66
2023/01/22 10:16:21;;;;;;;1.67;0.60;;;;;;;;;;4997616;28;20088;-67
2023/01/22 10:18:51;;;;;;;1.52;0.60;;;;;;;;;;4997800;28;20041;-67
2023/01/22 10:21:21;;;;;;;2.30;0.60;;;;;;;;;;5012939;28;20125;-67
2023/01/22 10:23:49;;;;;;;1.73;0.60;;;;;;;;;;4996598;28;20041;-68
2023/01/22 10:26:27;;;;;;;7.32;0.65;;;;;;;;;;4998388;28;20046;-67
2023/01/22 10:28:56;;;;;;;1.58;0.50;;;;;;;;;;4997620;28;20045;-67
2023/01/22 10:31:31;;;;;;;1.70;0.57;;;;;;;;;;4998917;28;20042;-67
2023/01/22 10:33:59;;;;;;;1.90;0.50;;;;;;;;;;5000156;28;20034;-68
2023/01/22 10:36:27;;;;;;;1.65;0.55;;;;;;;;;;4997470;28;20041;-67
2023/01/22 10:39:08;;;;;;;3.60;0.50;;;;;;;;;;5002303;28;20128;-67
2023/01/22 10:41:35;;;;;;;1.70;0.40;;;;;;;;;;5001053;28;20038;-68
2023/01/22 10:44:19;;;;;;;1.70;0.50;;;;;;;;;;5012183;28;20521;-67
2023/01/22 10:46:48;;;;;;;1.60;0.50;;;;;;;;;;5011164;28;20050;-67
2023/01/22 10:49:25;;;;;;;1.70;0.52;;;;;;;;;;4996197;28;20659;-67
2023/01/22 10:51:56;;;;;;;0.75;0.40;;;;;;;;;;4977073;28;20468;-68
2023/01/22 10:54:26;;;;;;;1.35;0.40;;;;;;;;;;4991036;28;20507;-66
2023/01/22 10:56:53;;;;;;;1.85;0.60;;;;;;;;;;4980016;28;20130;-66
2023/01/22 10:59:28;;;;;;;1.67;0.50;;;;;;;;;;4988983;28;20434;-65
2023/01/22 11:01:58;;;;;;;2.40;0.60;;;;;;;;;;4977092;28;20053;-66
2023/01/22 11:04:34;;;;;;;2.42;0.68;;;;;;;;;;4988492;28;20043;-68
2023/01/22 11:07:14;;;;;;;1.65;0.60;;;;;;;;;;4977062;28;20107;-67
2023/01/22 11:09:59;;;;;;;1.98;0.55;;;;;;;;;;4968831;28;20077;-66
2023/01/22 11:12:31;;;;;;;1.77;0.60;;;;;;;;;;4985361;28;20046;-66
2023/01/22 11:15:17;;;;;;;2.17;0.63;;;;;;;;;;4972190;28;20038;-67
2023/01/22 11:17:48;;;;;;;1.33;0.50;;;;;;;;;;4990516;28;20374;-67
2023/01/22 11:20:47;;;;;;;2.20;0.73;;;;;;;;;;4976492;28;20052;-66
2023/01/22 11:23:19;;;;;;;1.60;0.50;;;;;;;;;;4962917;28;20046;-67
2023/01/22 11:26:09;;;;;;;1.33;0.50;;;;;;;;;;4980369;28;20075;-68
2023/01/22 11:28:46;;;;;;;2.10;0.57;;;;;;;;;;4995143;28;20139;-67
2023/01/22 11:31:32;;;;;;;2.38;0.63;;;;;;;;;;4995925;28;20045;-67
2023/01/22 11:34:04;;;;;;;2.88;0.77;;;;;;;;;;4995976;28;20327;-66
2023/01/22 11:36:57;;;;;;;2.03;0.68;;;;;;;;;;4994929;28;20751;-67
2023/01/22 11:39:41;;;;;;;2.08;0.65;;;;;;;;;;4963073;28;20125;-66
2023/01/22 11:42:23;;;;;;;2.10;0.68;;;;;;;;;;4975779;28;20046;-67
2023/01/22 11:44:50;;;;;;;1.75;0.65;;;;;;;;;;4987658;28;20047;-68
2023/01/22 11:47:32;;;;;;;2.22;0.73;;;;;;;;;;4987207;28;20586;-67
2023/01/22 11:50:23;;;;;;;2.45;0.73;;;;;;;;;;4994952;28;20128;-67
2023/01/22 11:53:05;;;;;;;2.00;0.60;;;;;;;;;;4996104;28;20046;-66
2023/01/22 11:55:34;;;;;;;1.33;0.47;;;;;;;;;;4993879;28;20037;-66
2023/01/22 11:58:16;;;;;;;2.30;0.70;;;;;;;;;;5010095;28;20040;-66
2023/01/22 12:00:55;;;;;;;2.53;0.80;;;;;;;;;;4994004;28;20049;-67
2023/01/22 12:03:39;;;;;;;1.83;0.70;;;;;;;;;;4985714;28;20045;-66
2023/01/22 12:06:25;;;;;;;3.42;1.05;;;;;;;;;;5007427;28;20129;-67
2023/01/22 12:08:54;;;;;;;2.50;1.05;;;;;;;;;;4974380;28;20046;-67
2023/01/22 12:11:30;;;;;;;2.42;0.95;;;;;;;;;;4973170;28;20088;-67
2023/01/22 12:14:10;;;;;;;3.08;1.00;;;;;;;;;;4988918;28;20039;-66
2023/01/22 12:16:48;;;;;;;0.52;0.40;;;;;;;;;;4990009;28;20064;-66
2023/01/22 12:19:24;;;;;;;2.63;0.80;;;;;;;;;;4974761;28;20041;-66
2023/01/22 12:21:50;;;;;;;1.50;0.55;;;;;;;;;;4975761;28;20037;-66
2023/01/22 12:24:23;;;;;;;2.72;0.95;;;;;;;;;;4974898;28;20070;-66
2023/01/22 12:26:57;;;;;;;5.38;0.90;;;;;;;;;;4971803;28;20092;-66
2023/01/22 12:29:47;;;;;;;2.47;0.90;;;;;;;;;;5011402;28;20038;-67
2023/01/22 12:32:18;;;;;;;4.15;0.90;;;;;;;;;;5011847;28;20045;-67
2023/01/22 12:34:53;;;;;;;4.57;0.93;;;;;;;;;;5010366;28;20042;-68
2023/01/22 12:37:21;;;;;;;3.63;0.95;;;;;;;;;;4994580;28;20041;-67
2023/01/22 12:40:05;;;;;;;2.60;0.90;;;;;;;;;;5012534;28;20045;-67
2023/01/22 12:42:42;;;;;;;2.55;1.10;;;;;;;;;;5000462;28;20069;-66
2023/01/22 12:45:15;;;;;;;2.50;1.00;;;;;;;;;;5012358;28;20046;-66
2023/01/22 12:47:41;;;;;;;3.42;1.20;;;;;;;;;;4995075;28;20195;-67
2023/01/22 12:50:24;;;;;;;5.00;1.20;;;;;;;;;;5012834;28;20042;-67
2023/01/22 12:52:58;;;;;;;3.10;1.33;;;;;;;;;;5011380;28;20135;-67
2023/01/22 12:55:28;;;;;;;2.67;1.00;;;;;;;;;;5012242;28;20094;-67
2023/01/22 12:57:55;;;;;;;2.55;1.05;;;;;;;;;;5011719;28;20041;-67
2023/01/22 13:00:30;;;;;;;3.53;0.98;;;;;;;;;;5012958;28;20405;-67
2023/01/22 13:02:57;;;;;;;3.63;1.23;;;;;;;;;;5014631;28;20037;-67
2023/01/22 13:05:30;;;;;;;2.75;1.13;;;;;;;;;;5016336;28;20771;-67
2023/01/22 13:08:06;;;;;;;4.63;1.20;;;;;;;;;;4986727;28;21084;-67
2023/01/22 13:10:35;;;;;;;2.72;0.90;;;;;;;;;;4979159;28;20038;-67
2023/01/22 13:13:17;;;;;;;2.40;0.88;;;;;;;;;;4976995;28;20038;-67
2023/01/22 13:15:43;;;;;;;2.67;0.82;;;;;;;;;;4979028;28;20057;-67
2023/01/22 13:18:13;;;;;;;3.53;1.08;;;;;;;;;;4979004;28;20088;-67
2023/01/22 13:20:48;;;;;;;2.80;0.90;;;;;;;;;;4977812;28;20054;-67
2023/01/22 13:23:15;;;;;;;2.50;0.90;;;;;;;;;;4978132;28;20057;-67
2023/01/22 13:25:41;;;;;;;1.80;0.68;;;;;;;;;;4979899;28;20402;-68
2023/01/22 13:28:27;;;;;;;2.20;0.80;;;;;;;;;;4979978;28;20070;-67
2023/01/22 13:30:58;;;;;;;2.45;0.80;;;;;;;;;;4980619;28;20042;-67
2023/01/22 13:33:25;;;;;;;2.72;0.80;;;;;;;;;;4985313;28;20065;-67
2023/01/22 13:35:52;;;;;;;2.28;0.70;;;;;;;;;;4993749;28;20035;-66
2023/01/22 13:38:20;;;;;;;1.98;0.70;;;;;;;;;;4993659;28;20491;-66
2023/01/22 13:40:53;;;;;;;2.00;0.63;;;;;;;;;;4996129;28;20045;-66
2023/01/22 13:43:21;;;;;;;2.28;0.75;;;;;;;;;;4995715;28;20039;-66
2023/01/22 13:45:49;;;;;;;2.17;0.70;;;;;;;;;;4999387;28;20050;-66
2023/01/22 13:48:17;;;;;;;1.80;0.60;;;;;;;;;;4999107;28;20103;-67
2023/01/22 13:50:51;;;;;;;1.50;0.60;;;;;;;;;;5000771;28;20566;-67
2023/01/22 13:53:17;;;;;;;;;;;;;;;;;;4997910;28;20562;-67
2023/01/22 13:55:44;;;;;;;3.58;0.60;;;;;;;;;;5000369;28;19957;-66
2023/01/22 13:58:31;;;;;;;1.70;0.60;;;;;;;;;;4995928;28;20116;-66
2023/01/22 14:00:58;;;;;;;1.50;0.52;;;;;;;;;;4992142;28;20046;-67
2023/01/22 14:03:25;;;;;;;2.00;0.60;;;;;;;;;;5004924;28;20042;-66
2023/01/22 14:06:09;;;;;;;1.23;0.50;;;;;;;;;;5015816;28;20030;-67
2023/01/22 14:08:53;;;;;;;1.33;0.50;;;;;;;;;;5008367;28;20046;-66
2023/01/22 14:11:20;;;;;;;1.77;0.60;;;;;;;;;;4997429;28;20053;-66
2023/01/22 14:13:48;;;;;;;1.88;0.73;;;;;;;;;;5011692;28;20042;-66
2023/01/22 14:16:14;;;;;;;1.52;0.50;;;;;;;;;;5008661;28;20025;-66
2023/01/22 14:18:42;;;;;;;2.40;0.70;;;;;;;;;;5007194;28;20045;-66
2023/01/22 14:21:08;;;;;;;3.40;0.90;;;;;;;;;;5010187;28;20045;-66
2023/01/22 14:23:35;;;;;;;2.20;0.73;;;;;;;;;;5001412;28;20086;-66
2023/01/22 14:26:04;;;;;;;2.10;0.73;;;;;;;;;;5004558;28;20041;-67
2023/01/22 14:28:31;;;;;;;2.67;1.00;;;;;;;;;;4996782;28;20827;-68
2023/01/22 14:30:58;;;;;;;1.27;0.50;;;;;;;;;;5000501;28;20037;-67
2023/01/22 14:33:29;;;;;;;2.08;0.75;;;;;;;;;;4998828;28;20165;-67
2023/01/22 14:35:55;;;;;;;1.02;0.40;;;;;;;;;;4999468;28;20506;-66
2023/01/22 14:38:23;;;;;;;1.55;0.50;;;;;;;;;;4980828;28;20113;-66
2023/01/22 14:40:50;;;;;;;0.57;0.30;;;;;;;;;;4993550;28;20780;-66
2023/01/22 14:43:17;;;;;;;1.17;0.40;;;;;;;;;;5000576;28;20033;-67
2023/01/22 14:45:44;;;;;;;0.90;0.40;;;;;;;;;;4996986;28;20125;-68
2023/01/22 14:48:18;;;;;;;0.45;0.30;;;;;;;;;;4997326;28;20042;-67
2023/01/22 14:50:45;;;;;;;0.52;0.30;;;;;;;;;;4996754;28;20039;-67
2023/01/22 14:53:15;;;;;;;0.90;0.40;;;;;;;;;;4996627;28;20164;-67
2023/01/22 14:55:42;;;;;;;1.90;0.45;;;;;;;;;;4996244;28;20038;-67
2023/01/22 14:58:10;;;;;;;0.47;0.30;;;;;;;;;;4997126;28;20100;-67
2023/01/22 15:00:37;;;;;;;1.27;0.40;;;;;;;;;;4996356;28;20046;-66